Time;durP1;ratioP1;P1;durP2;ratioP2;P2;SDS_P1;SDS_P2;PMS_P1;PMS_P2;Temp;Humidity;BMP_temperature;BMP_pressure;BME280_temperature;BME280_humidity;BME280_pressure;Samples;Min_cycle;Max_cycle;Signal;HPM_P1;HPM_P2
2023/03/17 00:00:03;;;;;;;1.50;1.40;;;3.70;94.90;;;;;;5061456;28;20413;-83
2023/03/17 00:02:29;;;;;;;3.47;1.40;;;3.60;94.80;;;;;;5065513;28;20183;-83
2023/03/17 00:04:54;;;;;;;1.10;1.00;;;3.60;94.70;;;;;;5062686;28;20908;-84
2023/03/17 00:07:21;;;;;;;25.03;3.57;;;3.60;94.80;;;;;;5060356;28;20185;-84
2023/03/17 00:09:46;;;;;;;3.53;2.57;;;3.60;94.80;;;;;;5064719;28;20506;-84
2023/03/17 00:12:12;;;;;;;2.17;2.00;;;3.60;94.60;;;;;;5061112;28;20449;-84
2023/03/17 00:14:38;;;;;;;1.40;1.30;;;3.50;94.70;;;;;;5067089;28;20178;-84
2023/03/17 00:17:03;;;;;;;13.40;2.30;;;3.50;94.70;;;;;;5059287;28;20425;-84
2023/03/17 00:19:34;;;;;;;1.40;1.30;;;3.40;94.80;;;;;;5078025;28;20253;-84
2023/03/17 00:22:01;;;;;;;1.90;1.80;;;3.40;94.70;;;;;;5063174;28;20220;-82
2023/03/17 00:24:27;;;;;;;1.40;1.30;;;3.40;94.90;;;;;;5077806;28;20516;-84
2023/03/17 00:26:52;;;;;;;1.50;1.40;;;3.30;94.80;;;;;;5057502;28;20969;-84
2023/03/17 00:29:18;;;;;;;1.77;1.67;;;3.30;94.80;;;;;;5057556;28;20412;-83
2023/03/17 00:31:45;;;;;;;1.83;1.73;;;3.30;94.90;;;;;;5056986;28;20209;-84
2023/03/17 00:34:16;;;;;;;1.63;1.53;;;3.20;95.10;;;;;;5057374;28;20931;-84
2023/03/17 00:36:43;;;;;;;5.70;1.53;;;3.20;95.10;;;;;;5057266;28;20466;-84
2023/03/17 00:39:13;;;;;;;4.50;3.00;;;3.20;95.20;;;;;;5060773;28;20411;-84
2023/03/17 00:41:39;;;;;;;1.43;1.33;;;3.20;95.10;;;;;;5062197;28;20587;-84
2023/03/17 00:44:04;;;;;;;2.00;1.60;;;3.20;95.20;;;;;;5058403;28;20425;-84
2023/03/17 00:46:37;;;;;;;1.50;1.40;;;3.20;95.10;;;;;;5056591;28;20410;-84
2023/03/17 00:49:14;;;;;;;2.20;2.00;;;3.20;95.40;;;;;;5049763;28;20236;-83
2023/03/17 00:51:41;;;;;;;1.00;0.90;;;3.10;95.30;;;;;;5052645;28;20456;-84
2023/03/17 00:54:09;;;;;;;1.50;1.40;;;3.10;95.20;;;;;;5055776;28;20946;-84
2023/03/17 00:56:36;;;;;;;1.83;1.57;;;3.10;95.10;;;;;;5055240;28;20927;-84
2023/03/17 00:59:02;;;;;;;1.40;1.30;;;3.20;95.10;;;;;;5074624;28;20230;-84
2023/03/17 01:01:27;;;;;;;5.20;1.77;;;3.20;95.00;;;;;;5055540;28;20397;-84
2023/03/17 01:03:53;;;;;;;1.97;1.87;;;3.20;95.20;;;;;;5064978;28;20229;-84
2023/03/17 01:06:19;;;;;;;1.00;0.90;;;3.20;95.10;;;;;;5074841;28;20585;-84
2023/03/17 01:08:45;;;;;;;2.23;2.03;;;3.20;95.00;;;;;;5057241;28;20647;-84
2023/03/17 01:11:19;;;;;;;3.20;2.57;;;3.20;94.80;;;;;;5056599;28;20221;-84
2023/03/17 01:13:45;;;;;;;2.30;1.20;;;3.20;95.00;;;;;;5058031;28;20943;-84
2023/03/17 01:16:11;;;;;;;3.10;1.53;;;3.20;95.20;;;;;;5073132;28;20602;-84
2023/03/17 01:18:37;;;;;;;1.30;1.20;;;3.30;94.90;;;;;;5055032;28;20464;-84
2023/03/17 01:21:03;;;;;;;3.37;2.73;;;3.20;95.00;;;;;;5074245;28;20431;-84
2023/03/17 01:23:30;;;;;;;2.40;1.83;;;3.20;95.00;;;;;;5056230;28;20421;-84
2023/03/17 01:25:56;;;;;;;2.50;1.33;;;3.20;95.00;;;;;;5054247;28;20443;-84
2023/03/17 01:28:22;;;;;;;1.37;1.27;;;3.20;95.00;;;;;;5057682;28;20869;-84
2023/03/17 01:30:48;;;;;;;1.20;1.10;;;3.20;94.90;;;;;;5056573;28;20178;-84
2023/03/17 01:33:13;;;;;;;1.40;1.30;;;3.20;95.00;;;;;;5073815;28;20625;-84
2023/03/17 01:35:41;;;;;;;2.30;2.13;;;3.20;95.10;;;;;;5058873;28;20436;-84
2023/03/17 01:38:07;;;;;;;1.47;1.37;;;3.20;95.10;;;;;;5058295;28;20260;-84
2023/03/17 01:40:41;;;;;;;1.73;1.63;;;3.20;95.10;;;;;;5063503;28;20413;-84
2023/03/17 01:43:09;;;;;;;2.90;1.63;;;3.20;95.20;;;;;;5055291;28;20814;-84
2023/03/17 01:46:12;;;;;;;1.73;1.63;;;3.20;95.10;;;;;;5061524;28;20473;-84
2023/03/17 01:48:58;;;;;;;3.10;1.20;;;3.10;95.00;;;;;;5053327;28;20750;-84
2023/03/17 01:51:57;;;;;;;1.37;1.27;;;3.10;95.00;;;;;;5065852;28;20420;-84
2023/03/17 01:54:27;;;;;;;1.70;1.30;;;3.10;94.90;;;;;;5051306;28;20866;-84
2023/03/17 01:56:56;;;;;;;4.50;2.30;;;3.20;94.90;;;;;;5073525;28;20401;-84
2023/03/17 01:59:27;;;;;;;2.90;2.70;;;3.20;94.40;;;;;;5058040;28;20217;-84
2023/03/17 02:01:58;;;;;;;6.53;1.93;;;3.20;94.00;;;;;;5073201;28;20432;-84
2023/03/17 02:04:25;;;;;;;1.65;1.55;;;3.20;93.90;;;;;;5055600;28;20413;-84
2023/03/17 02:06:51;;;;;;;1.33;1.23;;;3.20;94.00;;;;;;5073077;28;20488;-84
2023/03/17 02:09:16;;;;;;;1.27;1.17;;;3.20;93.90;;;;;;5055665;28;20463;-84
2023/03/17 02:11:44;;;;;;;1.15;1.05;;;3.20;93.90;;;;;;5053623;28;20206;-84
2023/03/17 02:14:09;;;;;;;1.60;1.50;;;3.20;93.50;;;;;;5055281;28;20193;-84
2023/03/17 02:16:35;;;;;;;1.40;1.30;;;3.30;93.50;;;;;;5057928;28;20421;-84
2023/03/17 02:19:00;;;;;;;1.70;1.60;;;3.20;93.50;;;;;;5056027;28;20256;-84
2023/03/17 02:21:34;;;;;;;1.10;1.00;;;3.20;93.60;;;;;;5078017;28;20174;-84
2023/03/17 02:24:04;;;;;;;1.43;1.17;;;3.20;93.50;;;;;;5062076;28;20186;-84
2023/03/17 02:26:33;;;;;;;1.10;1.00;;;3.20;93.40;;;;;;5057348;28;20501;-84
2023/03/17 02:28:59;;;;;;;1.27;1.17;;;3.30;93.50;;;;;;5054653;28;20455;-84
2023/03/17 02:31:26;;;;;;;0.93;0.83;;;3.30;93.70;;;;;;5061697;28;20417;-84
2023/03/17 02:33:52;;;;;;;1.10;1.00;;;3.30;93.50;;;;;;5058406;28;20804;-84
2023/03/17 02:36:18;;;;;;;1.27;1.17;;;3.30;93.20;;;;;;5059239;28;20425;-84
2023/03/17 02:38:43;;;;;;;4.70;3.57;;;3.30;93.50;;;;;;5060807;28;21077;-84
2023/03/17 02:41:09;;;;;;;1.77;1.67;;;3.20;93.60;;;;;;5055983;28;20184;-84
2023/03/17 02:43:35;;;;;;;1.50;1.40;;;3.20;93.80;;;;;;5061970;28;20340;-84
2023/03/17 02:46:00;;;;;;;1.93;1.83;;;3.20;93.50;;;;;;5059545;28;20179;-84
2023/03/17 02:48:26;;;;;;;1.60;1.50;;;3.20;93.60;;;;;;5082695;28;20210;-84
2023/03/17 02:50:51;;;;;;;1.87;1.77;;;3.20;93.60;;;;;;5058455;28;20182;-84
2023/03/17 02:53:17;;;;;;;2.23;1.60;;;3.20;93.60;;;;;;5060366;28;20216;-84
2023/03/17 02:55:42;;;;;;;1.53;1.43;;;3.20;93.60;;;;;;5058714;28;20174;-85
2023/03/17 02:58:08;;;;;;;1.40;1.30;;;3.10;93.50;;;;;;5058493;28;20244;-84
2023/03/17 03:00:33;;;;;;;1.57;1.57;;;3.10;93.50;;;;;;5058473;28;20187;-84
2023/03/17 03:02:59;;;;;;;1.70;1.60;;;3.10;93.60;;;;;;5057513;28;20194;-84
2023/03/17 03:05:25;;;;;;;1.20;1.10;;;3.10;93.50;;;;;;5065712;28;20182;-84
2023/03/17 03:07:51;;;;;;;1.40;1.30;;;3.10;93.70;;;;;;5072428;28;20203;-84
2023/03/17 03:10:17;;;;;;;1.87;1.77;;;3.10;93.70;;;;;;5052867;28;20798;-84
2023/03/17 03:12:43;;;;;;;1.33;1.23;;;3.10;93.90;;;;;;5073186;28;20199;-84
2023/03/17 03:15:09;;;;;;;2.07;1.60;;;3.20;94.10;;;;;;5059021;28;20546;-84
2023/03/17 03:17:35;;;;;;;5.73;2.80;;;3.10;94.30;;;;;;5060239;28;20976;-84
2023/03/17 03:20:01;;;;;;;1.10;1.00;;;3.20;94.50;;;;;;5052839;28;20432;-84
2023/03/17 03:22:27;;;;;;;1.33;1.23;;;3.20;94.70;;;;;;5066364;28;20613;-84
2023/03/17 03:24:52;;;;;;;1.97;1.63;;;3.20;94.80;;;;;;5062765;28;20470;-85
2023/03/17 03:27:18;;;;;;;1.27;1.17;;;3.20;94.50;;;;;;5065876;28;20285;-84
2023/03/17 03:29:43;;;;;;;1.10;1.00;;;3.20;94.70;;;;;;5075804;28;20668;-84
2023/03/17 03:32:09;;;;;;;1.63;1.53;;;3.20;94.70;;;;;;5060241;28;20202;-85
2023/03/17 03:34:35;;;;;;;1.53;1.37;;;3.20;95.00;;;;;;5074385;28;20174;-84
2023/03/17 03:37:00;;;;;;;1.20;1.10;;;3.10;95.00;;;;;;5057132;28;20235;-84
2023/03/17 03:39:26;;;;;;;1.83;1.73;;;3.10;94.90;;;;;;5083381;28;20629;-84
2023/03/17 03:41:54;;;;;;;1.30;1.20;;;3.10;94.50;;;;;;5063172;28;20321;-84
2023/03/17 03:44:19;;;;;;;1.20;1.10;;;3.10;94.70;;;;;;5077090;28;20206;-84
2023/03/17 03:46:45;;;;;;;1.33;1.23;;;3.10;94.90;;;;;;5060642;28;20405;-84
2023/03/17 03:49:10;;;;;;;6.67;1.87;;;3.10;94.70;;;;;;5071206;28;20222;-84
2023/03/17 03:51:36;;;;;;;1.73;1.67;;;3.10;94.70;;;;;;5056819;28;20236;-84
2023/03/17 03:54:01;;;;;;;1.40;1.30;;;3.10;94.60;;;;;;5059674;28;20180;-84
2023/03/17 03:56:27;;;;;;;1.20;1.10;;;3.10;94.50;;;;;;5064171;28;20640;-84
2023/03/17 03:58:52;;;;;;;1.57;1.47;;;3.10;94.60;;;;;;5061647;28;20214;-85
2023/03/17 04:01:18;;;;;;;1.47;1.37;;;3.10;94.70;;;;;;5056799;28;20257;-83
2023/03/17 04:03:46;;;;;;;1.40;1.30;;;3.20;94.60;;;;;;5050542;28;20717;-84
2023/03/17 04:06:11;;;;;;;1.30;1.20;;;3.10;94.90;;;;;;5065081;28;20167;-84
2023/03/17 04:08:37;;;;;;;1.17;1.07;;;3.20;94.60;;;;;;5062992;28;20433;-84
2023/03/17 04:11:02;;;;;;;1.73;1.40;;;3.20;94.50;;;;;;5061633;28;20434;-84
2023/03/17 04:13:28;;;;;;;3.00;1.30;;;3.20;94.50;;;;;;5076115;28;20202;-84
2023/03/17 04:15:53;;;;;;;1.30;1.20;;;3.20;94.50;;;;;;5062347;28;20170;-84
2023/03/17 04:18:19;;;;;;;2.80;2.60;;;3.20;94.50;;;;;;5065104;28;20312;-84
2023/03/17 04:20:44;;;;;;;2.17;2.00;;;3.30;94.10;;;;;;5075742;28;20232;-84
2023/03/17 04:23:10;;;;;;;2.20;2.00;;;3.30;93.80;;;;;;5046004;28;20176;-84
2023/03/17 04:25:36;;;;;;;2.03;1.93;;;3.30;94.00;;;;;;5063906;28;20388;-84
2023/03/17 04:28:02;;;;;;;1.80;1.70;;;3.30;94.00;;;;;;5075796;28;20437;-84
2023/03/17 04:30:28;;;;;;;6.00;1.97;;;3.30;94.00;;;;;;5064281;28;20462;-84
2023/03/17 04:32:53;;;;;;;1.33;1.23;;;3.30;94.00;;;;;;5062254;28;20225;-84
2023/03/17 04:35:23;;;;;;;2.07;1.93;;;3.40;94.10;;;;;;5064497;28;20205;-85
2023/03/17 04:37:49;;;;;;;1.40;1.30;;;3.40;93.90;;;;;;5057859;28;20606;-84
2023/03/17 04:40:16;;;;;;;1.50;1.40;;;3.40;93.80;;;;;;5058309;28;20942;-84
2023/03/17 04:42:42;;;;;;;1.93;1.80;;;3.40;94.00;;;;;;5066339;28;20427;-84
2023/03/17 04:45:10;;;;;;;4.60;2.50;;;3.40;93.90;;;;;;5049495;28;20611;-85
2023/03/17 04:47:36;;;;;;;1.77;1.67;;;3.40;94.10;;;;;;5069429;28;20656;-84
2023/03/17 04:50:02;;;;;;;1.43;1.40;;;3.40;94.20;;;;;;5063007;28;20504;-84
2023/03/17 04:52:28;;;;;;;2.23;2.07;;;3.40;94.10;;;;;;5083319;28;20952;-84
2023/03/17 04:54:54;;;;;;;2.40;2.20;;;3.40;93.80;;;;;;5069030;28;20440;-84
2023/03/17 04:57:19;;;;;;;1.20;1.10;;;3.40;93.80;;;;;;5069168;28;20429;-84
2023/03/17 04:59:45;;;;;;;1.40;1.30;;;3.30;93.60;;;;;;5068813;28;20163;-84
2023/03/17 05:02:11;;;;;;;2.07;1.93;;;3.20;93.40;;;;;;5074590;28;20229;-85
2023/03/17 05:04:37;;;;;;;2.33;1.17;;;3.20;93.50;;;;;;5061232;28;20966;-84
2023/03/17 05:07:02;;;;;;;1.00;0.90;;;3.20;93.40;;;;;;5064901;28;20478;-85
2023/03/17 05:09:28;;;;;;;1.40;1.30;;;3.10;93.60;;;;;;5055394;28;20179;-84
2023/03/17 05:11:54;;;;;;;4.20;2.23;;;3.10;93.80;;;;;;5056434;28;20203;-84
2023/03/17 05:14:20;;;;;;;1.27;1.23;;;3.10;94.20;;;;;;5055827;28;20171;-85
2023/03/17 05:16:46;;;;;;;1.67;1.57;;;3.10;94.70;;;;;;5052663;28;20428;-84
2023/03/17 05:19:12;;;;;;;1.80;1.70;;;3.10;95.00;;;;;;5053211;28;20218;-84
2023/03/17 05:21:37;;;;;;;1.73;1.63;;;3.10;95.20;;;;;;5075061;28;20420;-86
2023/03/17 05:24:04;;;;;;;1.37;1.27;;;3.00;95.10;;;;;;5075196;28;20586;-84
2023/03/17 05:26:29;;;;;;;1.47;1.33;;;3.10;95.20;;;;;;5057731;28;20468;-84
2023/03/17 05:28:55;;;;;;;10.90;3.63;;;3.10;95.10;;;;;;5056805;28;20999;-84
2023/03/17 05:31:21;;;;;;;1.30;1.20;;;3.10;95.10;;;;;;5077790;28;20484;-85
2023/03/17 05:33:48;;;;;;;1.23;1.13;;;3.10;95.10;;;;;;5061033;28;20171;-86
2023/03/17 05:36:14;;;;;;;1.97;1.87;;;3.10;95.20;;;;;;5056782;28;20414;-85
2023/03/17 05:38:40;;;;;;;1.97;1.87;;;3.20;95.20;;;;;;5055469;28;20539;-84
2023/03/17 05:41:06;;;;;;;1.00;0.90;;;3.20;95.10;;;;;;5049916;28;20639;-84
2023/03/17 05:43:32;;;;;;;3.10;2.90;;;3.20;95.00;;;;;;5051620;28;20425;-84
2023/03/17 05:45:57;;;;;;;1.30;1.20;;;3.20;95.20;;;;;;5053243;28;20186;-84
2023/03/17 05:48:23;;;;;;;10.03;2.13;;;3.20;95.30;;;;;;5056578;28;20191;-84
2023/03/17 05:50:48;;;;;;;1.37;1.27;;;3.20;95.60;;;;;;5058250;28;20268;-84
2023/03/17 05:53:16;;;;;;;1.20;1.10;;;3.20;95.40;;;;;;5060455;28;20521;-84
2023/03/17 05:55:41;;;;;;;1.57;1.50;;;3.20;95.00;;;;;;5054096;28;20175;-84
2023/03/17 05:58:08;;;;;;;2.60;1.30;;;3.30;95.00;;;;;;5054899;28;20986;-85
2023/03/17 06:00:34;;;;;;;1.50;1.40;;;3.30;95.10;;;;;;5051167;28;20193;-84
2023/03/17 06:03:01;;;;;;;3.07;2.80;;;3.30;95.50;;;;;;5055571;28;20425;-84
2023/03/17 06:05:26;;;;;;;1.80;1.73;;;3.40;95.70;;;;;;5058583;28;20938;-85
2023/03/17 06:07:52;;;;;;;2.00;1.50;;;3.40;95.70;;;;;;5063350;28;20445;-84
2023/03/17 06:10:18;;;;;;;1.53;1.43;;;3.40;95.70;;;;;;5055191;28;20236;-84
2023/03/17 06:12:43;;;;;;;1.20;1.10;;;3.50;95.60;;;;;;5057568;28;20206;-83
2023/03/17 06:15:09;;;;;;;1.10;1.00;;;3.50;95.20;;;;;;5050805;28;20515;-85
2023/03/17 06:17:35;;;;;;;2.93;1.47;;;3.60;94.20;;;;;;5055956;28;20219;-84
2023/03/17 06:20:02;;;;;;;1.50;1.40;;;3.70;93.90;;;;;;5056314;28;20421;-84
2023/03/17 06:22:28;;;;;;;1.53;1.50;;;3.70;93.60;;;;;;5058443;28;20449;-84
2023/03/17 06:24:54;;;;;;;5.33;1.90;;;3.80;93.40;;;;;;5055105;28;20426;-83
2023/03/17 06:27:20;;;;;;;1.57;1.47;;;3.90;92.90;;;;;;5056746;28;20345;-85
2023/03/17 06:29:45;;;;;;;2.00;1.57;;;3.90;92.70;;;;;;5046495;28;20172;-85
2023/03/17 06:32:11;;;;;;;1.50;1.40;;;4.00;92.80;;;;;;5053079;28;20199;-84
2023/03/17 06:34:36;;;;;;;1.27;1.17;;;4.10;92.80;;;;;;5051643;28;20183;-84
2023/03/17 06:37:02;;;;;;;1.60;1.50;;;4.20;91.50;;;;;;5060639;28;20932;-84
2023/03/17 06:39:28;;;;;;;1.47;1.37;;;4.20;90.70;;;;;;5065887;28;20162;-84
2023/03/17 06:41:53;;;;;;;1.87;1.77;;;4.30;89.90;;;;;;5051529;28;20650;-85
2023/03/17 06:44:19;;;;;;;1.90;1.40;;;4.30;89.80;;;;;;5060648;28;20963;-84
2023/03/17 06:46:45;;;;;;;2.83;1.67;;;4.40;89.70;;;;;;5055304;28;20258;-83
2023/03/17 06:49:12;;;;;;;1.33;1.23;;;4.50;89.90;;;;;;5046098;28;20198;-84
2023/03/17 06:51:38;;;;;;;1.30;1.20;;;4.50;89.70;;;;;;5047651;28;20174;-85
2023/03/17 06:54:05;;;;;;;1.83;1.73;;;4.60;89.00;;;;;;5055907;28;20440;-84
2023/03/17 06:56:31;;;;;;;2.03;1.90;;;4.70;88.70;;;;;;5078446;28;20439;-84
2023/03/17 06:58:57;;;;;;;1.43;1.33;;;4.90;88.50;;;;;;5075190;28;20429;-84
2023/03/17 07:01:23;;;;;;;1.67;1.60;;;5.00;89.00;;;;;;5045794;28;20228;-84
2023/03/17 07:03:48;;;;;;;5.50;1.60;;;5.10;88.70;;;;;;5057102;28;20492;-83
2023/03/17 07:06:14;;;;;;;2.17;1.13;;;5.20;88.30;;;;;;5056807;28;20175;-84
2023/03/17 07:08:40;;;;;;;3.23;2.53;;;5.30;87.80;;;;;;5053483;28;20719;-83
2023/03/17 07:11:06;;;;;;;1.63;1.33;;;5.40;86.90;;;;;;5054652;28;20179;-85
2023/03/17 07:13:34;;;;;;;1.37;1.27;;;5.50;86.70;;;;;;5053323;28;20515;-84
2023/03/17 07:16:01;;;;;;;1.60;1.50;;;5.50;86.20;;;;;;5051607;28;20193;-83
2023/03/17 07:18:30;;;;;;;3.03;2.03;;;5.40;86.20;;;;;;5053067;28;20538;-84
2023/03/17 07:20:57;;;;;;;3.47;2.07;;;5.50;86.20;;;;;;5071375;28;20406;-85
2023/03/17 07:23:22;;;;;;;1.80;1.70;;;5.60;87.00;;;;;;5054708;28;20425;-84
2023/03/17 07:25:49;;;;;;;1.20;1.10;;;5.80;87.20;;;;;;5059390;28;20513;-85
2023/03/17 07:28:15;;;;;;;3.43;2.20;;;5.90;87.00;;;;;;5059480;28;20202;-84
2023/03/17 07:30:45;;;;;;;1.70;1.60;;;6.10;86.70;;;;;;5063775;28;20500;-84
2023/03/17 07:33:14;;;;;;;1.10;1.00;;;6.20;86.00;;;;;;5060682;28;20795;-85
2023/03/17 07:35:40;;;;;;;1.50;1.40;;;6.40;85.30;;;;;;5057054;28;20959;-84
2023/03/17 07:38:05;;;;;;;0.90;0.80;;;6.60;85.10;;;;;;5062656;28;20451;-84
2023/03/17 07:40:31;;;;;;;2.20;1.53;;;6.80;83.80;;;;;;5058021;28;20434;-84
2023/03/17 07:42:57;;;;;;;2.70;2.20;;;6.90;83.20;;;;;;5059646;28;20239;-84
2023/03/17 07:45:22;;;;;;;2.00;1.87;;;7.00;82.80;;;;;;5056479;28;20270;-84
2023/03/17 07:47:48;;;;;;;1.40;1.30;;;7.20;83.00;;;;;;5074808;28;20526;-83
2023/03/17 07:50:14;;;;;;;3.37;1.97;;;7.30;82.90;;;;;;5057273;28;20666;-85
2023/03/17 07:52:41;;;;;;;2.40;2.27;;;7.40;81.70;;;;;;5081428;28;20199;-85
2023/03/17 07:55:09;;;;;;;4.67;2.00;;;7.40;81.40;;;;;;5073846;28;20446;-84
2023/03/17 07:57:35;;;;;;;1.67;1.57;;;7.50;81.10;;;;;;5056305;28;20449;-85
2023/03/17 08:00:00;;;;;;;1.20;1.10;;;7.60;81.20;;;;;;5063424;28;20405;-85
2023/03/17 08:02:26;;;;;;;1.10;1.00;;;7.70;80.90;;;;;;5058384;28;20764;-84
2023/03/17 08:04:52;;;;;;;1.30;1.20;;;7.70;81.60;;;;;;5055620;28;20526;-84
2023/03/17 08:07:18;;;;;;;1.90;1.80;;;7.80;81.00;;;;;;5055218;28;20191;-85
2023/03/17 08:09:43;;;;;;;2.20;1.97;;;7.90;80.50;;;;;;5055426;28;20425;-85
2023/03/17 08:12:09;;;;;;;1.77;1.30;;;8.10;79.70;;;;;;5057269;28;20199;-85
2023/03/17 08:14:35;;;;;;;1.53;1.33;;;8.20;79.30;;;;;;5060826;28;20245;-84
2023/03/17 08:17:01;;;;;;;1.40;1.30;;;8.30;79.50;;;;;;5053793;28;20940;-85
2023/03/17 08:19:26;;;;;;;2.20;1.53;;;8.50;79.10;;;;;;5072558;28;20203;-86
2023/03/17 08:21:52;;;;;;;1.70;1.60;;;8.60;78.10;;;;;;5055074;28;20430;-85
2023/03/17 08:24:17;;;;;;;2.50;1.53;;;8.80;78.30;;;;;;5054576;28;20186;-85
2023/03/17 08:26:47;;;;;;;4.40;2.87;;;8.90;78.20;;;;;;5054392;28;20175;-84
2023/03/17 08:29:12;;;;;;;1.10;1.00;;;9.00;77.80;;;;;;5072385;28;20206;-85
2023/03/17 08:31:39;;;;;;;1.10;1.00;;;9.10;77.30;;;;;;5055320;28;20435;-85
2023/03/17 08:34:04;;;;;;;1.10;1.00;;;9.30;76.90;;;;;;5052971;28;20183;-85
2023/03/17 08:36:30;;;;;;;4.13;1.93;;;9.30;75.80;;;;;;5054093;28;20408;-84
2023/03/17 08:38:55;;;;;;;1.07;0.97;;;9.50;75.70;;;;;;5053820;28;20682;-85
2023/03/17 08:41:23;;;;;;;2.47;1.60;;;9.60;75.60;;;;;;5053926;28;20178;-85
2023/03/17 08:43:50;;;;;;;24.47;2.27;;;9.70;75.80;;;;;;5054153;28;20183;-85
2023/03/17 08:46:26;;;;;;;4.10;2.13;;;9.70;74.60;;;;;;5054173;28;20827;-84
2023/03/17 08:48:53;;;;;;;1.33;1.23;;;9.80;75.10;;;;;;5052513;28;20552;-85
2023/03/17 08:51:19;;;;;;;1.53;1.43;;;10.00;74.90;;;;;;5055551;28;20413;-85
2023/03/17 08:53:45;;;;;;;5.20;1.97;;;10.20;75.20;;;;;;5052501;28;20460;-85
2023/03/17 08:56:12;;;;;;;1.47;1.37;;;10.40;75.40;;;;;;5069836;28;20414;-85
2023/03/17 08:58:39;;;;;;;1.57;1.50;;;10.60;75.00;;;;;;5053374;28;20437;-85
2023/03/17 09:01:05;;;;;;;1.37;1.27;;;10.80;74.20;;;;;;5053859;28;20425;-85
2023/03/17 09:03:32;;;;;;;2.47;1.60;;;10.80;73.10;;;;;;5054712;28;20420;-86
2023/03/17 09:05:58;;;;;;;1.30;1.20;;;10.80;73.00;;;;;;5054109;28;20508;-84
2023/03/17 09:08:25;;;;;;;2.63;1.37;;;10.90;73.00;;;;;;5054444;28;20441;-84
2023/03/17 09:10:51;;;;;;;3.73;2.30;;;11.00;73.10;;;;;;5054996;28;20811;-85
2023/03/17 09:13:17;;;;;;;1.57;1.43;;;11.10;73.20;;;;;;5054340;28;21029;-84
2023/03/17 09:15:44;;;;;;;3.77;1.30;;;11.20;72.30;;;;;;5054681;28;20489;-83
2023/03/17 09:18:10;;;;;;;1.30;1.10;;;11.30;71.50;;;;;;5053884;28;20484;-85
2023/03/17 09:20:36;;;;;;;1.40;1.30;;;11.30;71.50;;;;;;5072097;28;20418;-85
2023/03/17 09:23:08;;;;;;;1.10;1.00;;;11.50;73.40;;;;;;5055050;28;20186;-85
2023/03/17 09:25:35;;;;;;;8.70;2.07;;;11.70;72.10;;;;;;5053340;28;20171;-85
2023/03/17 09:28:00;;;;;;;1.43;1.33;;;11.80;71.60;;;;;;5053213;28;20840;-85
2023/03/17 09:30:26;;;;;;;1.00;0.90;;;12.00;70.80;;;;;;5053039;28;20413;-85
2023/03/17 09:32:52;;;;;;;0.97;0.90;;;12.20;71.10;;;;;;5054078;28;20205;-85
2023/03/17 09:35:18;;;;;;;1.13;1.03;;;12.30;70.80;;;;;;5052358;28;20171;-85
2023/03/17 09:37:43;;;;;;;1.30;1.20;;;12.30;69.80;;;;;;5052791;28;20470;-85
2023/03/17 09:40:15;;;;;;;2.03;1.50;;;12.20;69.50;;;;;;5052017;28;20167;-84
2023/03/17 09:43:10;;;;;;;2.80;1.43;;;12.40;70.50;;;;;;5052864;28;20182;-85
2023/03/17 09:45:40;;;;;;;1.30;1.20;;;12.50;69.70;;;;;;5046955;28;21024;-85
2023/03/17 09:48:47;;;;;;;1.10;1.00;;;12.60;69.10;;;;;;5052737;28;20449;-85
2023/03/17 09:51:17;;;;;;;1.53;1.43;;;12.60;69.90;;;;;;5053146;28;20495;-85
2023/03/17 09:54:05;;;;;;;1.10;1.00;;;12.70;68.50;;;;;;5052155;28;21048;-85
2023/03/17 09:56:33;;;;;;;1.10;1.00;;;12.90;70.40;;;;;;5055042;28;20695;-85
2023/03/17 09:59:03;;;;;;;1.13;1.10;;;12.90;69.10;;;;;;5052363;28;20531;-85
2023/03/17 10:01:29;;;;;;;1.10;1.00;;;13.10;68.80;;;;;;5055748;28;20449;-85
2023/03/17 10:03:55;;;;;;;2.10;1.60;;;13.30;68.80;;;;;;5052332;28;20764;-84
2023/03/17 10:06:32;;;;;;;1.03;0.93;;;13.40;68.80;;;;;;5049100;28;20414;-86
2023/03/17 10:09:21;;;;;;;2.70;2.50;;;13.30;67.10;;;;;;5071920;28;20678;-86
2023/03/17 10:11:53;;;;;;;1.93;1.83;;;13.30;67.10;;;;;;5052066;28;20457;-85
2023/03/17 10:14:39;;;;;;;1.37;1.27;;;13.40;68.00;;;;;;5051975;28;20762;-85
2023/03/17 10:17:20;;;;;;;1.63;1.43;;;13.70;68.80;;;;;;5049690;28;20414;-85
2023/03/17 10:20:03;;;;;;;1.00;0.90;;;13.90;68.10;;;;;;5051869;28;20460;-85
2023/03/17 10:22:40;;;;;;;1.30;1.20;;;14.10;67.10;;;;;;5058356;28;20414;-85
2023/03/17 10:25:18;;;;;;;1.27;1.23;;;14.20;67.60;;;;;;5069913;28;20817;-85
2023/03/17 10:27:53;;;;;;;1.70;1.60;;;14.40;67.10;;;;;;5048768;28;20495;-85
2023/03/17 10:30:21;;;;;;;1.40;1.07;;;14.50;66.60;;;;;;5051898;28;20436;-86
2023/03/17 10:32:47;;;;;;;1.53;1.43;;;14.50;65.30;;;;;;5055163;28;20457;-85
2023/03/17 10:35:14;;;;;;;1.77;1.53;;;14.50;65.80;;;;;;5057815;28;21105;-84
2023/03/17 10:37:41;;;;;;;1.00;0.90;;;14.50;65.60;;;;;;5052129;28;20441;-85
2023/03/17 10:40:17;;;;;;;1.67;1.50;;;14.40;65.60;;;;;;5059163;28;20416;-85
2023/03/17 10:42:48;;;;;;;2.07;1.93;;;14.40;65.60;;;;;;5052010;28;20430;-85
2023/03/17 10:45:34;;;;;;;8.67;2.77;;;14.50;65.90;;;;;;5051464;28;20429;-85
2023/03/17 10:48:03;;;;;;;1.13;1.07;;;14.50;65.80;;;;;;5051589;28;20437;-85
2023/03/17 10:50:31;;;;;;;2.23;1.23;;;14.60;65.80;;;;;;5051703;28;20417;-85
2023/03/17 10:53:06;;;;;;;1.20;1.10;;;14.80;66.40;;;;;;5055913;28;21000;-85
2023/03/17 10:55:47;;;;;;;1.10;1.00;;;14.90;65.80;;;;;;5066958;28;20782;-85
2023/03/17 10:58:17;;;;;;;2.47;1.80;;;15.00;64.90;;;;;;5049607;28;20465;-85
2023/03/17 11:00:59;;;;;;;3.07;1.40;;;15.00;65.50;;;;;;5071206;28;20420;-85
2023/03/17 11:03:27;;;;;;;1.63;1.30;;;15.00;65.10;;;;;;5055375;28;20924;-85
2023/03/17 11:06:05;;;;;;;3.67;1.80;;;15.10;64.40;;;;;;5055394;28;20431;-85
2023/03/17 11:08:34;;;;;;;1.03;0.93;;;15.20;65.50;;;;;;5079207;28;20447;-85
2023/03/17 11:11:20;;;;;;;1.10;1.00;;;15.30;65.70;;;;;;5055226;28;20421;-84
2023/03/17 11:13:47;;;;;;;0.90;0.80;;;15.30;65.40;;;;;;5054580;28;20468;-85
2023/03/17 11:16:23;;;;;;;1.20;1.10;;;15.30;64.90;;;;;;5062998;28;20416;-85
2023/03/17 11:18:57;;;;;;;2.20;1.53;;;15.40;66.00;;;;;;5055565;28;21014;-85
2023/03/17 11:21:51;;;;;;;1.00;0.90;;;15.50;64.50;;;;;;5074861;28;20500;-85
2023/03/17 11:24:31;;;;;;;3.33;1.10;;;15.70;65.10;;;;;;5078925;28;20875;-85
2023/03/17 11:27:25;;;;;;;1.40;1.30;;;15.80;65.10;;;;;;5055170;28;20437;-85
2023/03/17 11:30:15;;;;;;;1.40;1.30;;;15.90;66.00;;;;;;5037884;28;20456;-85
2023/03/17 11:32:55;;;;;;;2.00;1.40;;;16.10;66.60;;;;;;5072652;28;20540;-85
2023/03/17 11:35:27;;;;;;;1.20;1.10;;;16.20;68.20;;;;;;5054687;28;20475;-85
2023/03/17 11:38:27;;;;;;;1.20;1.10;;;16.30;69.00;;;;;;5071897;28;20502;-84
2023/03/17 11:41:35;;;;;;;1.27;1.17;;;16.20;67.60;;;;;;5071540;28;20406;-85
2023/03/17 11:44:35;;;;;;;2.20;1.97;;;16.20;68.30;;;;;;5057720;28;20447;-85
2023/03/17 11:47:01;;;;;;;1.50;1.40;;;16.30;68.40;;;;;;5047498;28;20552;-84
2023/03/17 11:49:38;;;;;;;2.87;2.67;;;16.20;67.30;;;;;;5058233;28;20506;-85
2023/03/17 11:52:15;;;;;;;2.80;2.00;;;16.30;68.70;;;;;;5078040;28;20297;-85
2023/03/17 11:54:49;;;;;;;1.40;1.30;;;16.40;69.40;;;;;;5053332;28;20437;-85
2023/03/17 11:57:21;;;;;;;3.13;1.73;;;16.60;69.00;;;;;;5069048;28;20424;-85
2023/03/17 11:59:55;;;;;;;1.20;1.10;;;16.60;68.10;;;;;;5050113;28;20520;-85
2023/03/17 12:02:47;;;;;;;1.50;1.40;;;16.60;67.30;;;;;;5053958;28;20996;-85
2023/03/17 12:05:19;;;;;;;1.10;1.00;;;16.60;67.80;;;;;;5056623;28;20421;-85
2023/03/17 12:07:53;;;;;;;1.83;1.63;;;16.50;67.30;;;;;;5072241;28;20433;-85
2023/03/17 12:10:38;;;;;;;1.20;1.10;;;16.60;67.90;;;;;;5055592;28;20795;-86
2023/03/17 12:13:11;;;;;;;1.30;1.20;;;16.70;67.90;;;;;;5054357;28;21054;-85
2023/03/17 12:15:42;;;;;;;1.30;1.20;;;16.60;67.90;;;;;;5056149;28;20418;-85
2023/03/17 12:18:20;;;;;;;1.63;1.53;;;16.60;67.50;;;;;;5054026;28;20503;-85
2023/03/17 12:21:04;;;;;;;4.20;1.33;;;16.60;67.60;;;;;;5048628;28;20447;-85
2023/03/17 12:24:00;;;;;;;1.17;1.00;;;16.70;68.10;;;;;;5059618;28;20462;-86
2023/03/17 12:26:32;;;;;;;1.47;1.23;;;16.70;68.20;;;;;;5055353;28;20471;-85
2023/03/17 12:29:20;;;;;;;1.00;1.00;;;16.80;68.40;;;;;;5052662;28;20441;-85
2023/03/17 12:31:54;;;;;;;1.17;1.07;;;16.80;67.70;;;;;;5055125;28;20416;-85
2023/03/17 12:34:38;;;;;;;1.00;0.90;;;16.70;67.40;;;;;;5072181;28;20690;-85
2023/03/17 12:37:03;;;;;;;1.27;1.17;;;16.60;67.20;;;;;;5047029;28;20520;-85
2023/03/17 12:39:35;;;;;;;1.00;0.90;;;16.70;67.40;;;;;;5051622;28;20978;-85
2023/03/17 12:42:26;;;;;;;1.80;1.70;;;16.70;67.60;;;;;;5059586;28;20228;-85
2023/03/17 12:45:14;;;;;;;1.17;1.07;;;16.70;67.30;;;;;;5054262;28;20428;-85
2023/03/17 12:47:54;;;;;;;1.43;1.33;;;16.80;67.90;;;;;;5071268;28;20988;-85
2023/03/17 12:50:29;;;;;;;1.10;1.00;;;17.10;68.30;;;;;;5068906;28;20452;-85
2023/03/17 12:53:20;;;;;;;0.90;0.80;;;17.20;66.90;;;;;;5082705;28;20452;-86
2023/03/17 12:55:49;;;;;;;1.00;0.90;;;17.40;67.50;;;;;;5059094;28;20417;-85
2023/03/17 12:58:51;;;;;;;1.73;1.37;;;17.70;67.90;;;;;;5057894;28;20460;-86
2023/03/17 13:01:37;;;;;;;1.50;1.40;;;18.00;67.30;;;;;;4972152;28;20429;-87
2023/03/17 13:04:05;;;;;;;2.80;2.17;;;18.10;66.70;;;;;;5056153;28;20461;-86